createdAt,value
2019-04-04T00:00:09.713Z,989.57
2019-04-04T00:01:09.686Z,989.56
2019-04-04T00:02:09.660Z,989.53
2019-04-04T00:03:09.631Z,989.54
2019-04-04T00:04:09.606Z,989.51
2019-04-04T00:05:09.578Z,989.52
2019-04-04T00:06:09.551Z,989.56
2019-04-04T00:07:09.525Z,989.56
2019-04-04T00:08:09.499Z,989.57
2019-04-04T00:09:09.471Z,989.55
2019-04-04T00:10:09.443Z,989.54
2019-04-04T00:11:09.418Z,989.56
2019-04-04T00:12:10.590Z,989.55
2019-04-04T00:13:11.111Z,989.52
2019-04-04T00:14:09.337Z,989.54
2019-04-04T00:15:09.311Z,989.53
2019-04-04T00:16:09.285Z,989.52
2019-04-04T00:17:09.257Z,989.51
2019-04-04T00:18:09.229Z,989.46
2019-04-04T00:19:09.203Z,989.38
2019-04-04T00:20:09.177Z,989.3
2019-04-04T00:21:09.148Z,989.23
2019-04-04T00:22:09.123Z,989.19
2019-04-04T00:23:09.096Z,989.21
2019-04-04T00:24:09.688Z,989.17
2019-04-04T00:25:10.375Z,989.2
2019-04-04T00:26:10.767Z,989.16
2019-04-04T00:27:08.987Z,989.11
2019-04-04T00:28:08.961Z,989.05
2019-04-04T00:29:08.933Z,988.98
2019-04-04T00:30:08.907Z,988.97
2019-04-04T00:31:08.883Z,988.97
2019-04-04T00:32:08.851Z,989.09
2019-04-04T00:33:08.826Z,989.16
2019-04-04T00:34:08.799Z,989.26
2019-04-04T00:35:08.772Z,989.27
2019-04-04T00:36:08.745Z,989.34
2019-04-04T00:37:08.716Z,989.35
2019-04-04T00:38:08.692Z,989.36
2019-04-04T00:39:09.412Z,989.35
2019-04-04T00:40:10.747Z,989.32
2019-04-04T00:41:08.608Z,989.3
2019-04-04T00:42:08.582Z,989.27
2019-04-04T00:43:08.555Z,989.33
2019-04-04T00:44:08.527Z,989.33
2019-04-04T00:45:08.501Z,989.39
2019-04-04T00:46:08.473Z,989.41
2019-04-04T00:47:08.446Z,989.44
2019-04-04T00:48:08.418Z,989.45
2019-04-04T00:49:08.394Z,989.39
2019-04-04T00:50:08.374Z,989.35
2019-04-04T00:51:08.590Z,989.36
2019-04-04T00:52:10.297Z,989.4
2019-04-04T00:53:09.888Z,989.38
2019-04-04T00:54:08.255Z,989.4
2019-04-04T00:55:08.236Z,989.35
2019-04-04T00:56:08.204Z,989.3
2019-04-04T00:57:08.173Z,989.29
2019-04-04T00:58:08.148Z,989.27
2019-04-04T00:59:08.122Z,989.18
2019-04-04T01:00:08.093Z,989.07
2019-04-04T01:01:08.067Z,989.07
2019-04-04T01:02:08.041Z,989.04
2019-04-04T01:03:08.012Z,989
2019-04-04T01:04:07.985Z,988.99
2019-04-04T01:05:07.959Z,989
2019-04-04T01:06:07.930Z,989.03
2019-04-04T01:07:07.905Z,989.07
2019-04-04T01:08:07.940Z,989.12
2019-04-04T01:09:11.216Z,989.13
2019-04-04T01:10:07.822Z,989.15
2019-04-04T01:11:07.798Z,989.19
2019-04-04T01:12:07.767Z,989.16
2019-04-04T01:13:07.740Z,989.2
2019-04-04T01:14:07.712Z,989.16
2019-04-04T01:15:07.971Z,989.21
2019-04-04T01:16:07.659Z,989.24
2019-04-04T01:17:07.632Z,989.22
2019-04-04T01:18:07.605Z,989.14
2019-04-04T01:19:09.571Z,989.09
2019-04-04T01:20:07.550Z,989.01
2019-04-04T01:21:07.522Z,989.03
2019-04-04T01:22:07.497Z,989.03
2019-04-04T01:23:07.468Z,989.05
2019-04-04T01:24:07.443Z,989.04
2019-04-04T01:25:07.414Z,989
2019-04-04T01:26:07.387Z,988.95
2019-04-04T01:27:07.360Z,988.99
2019-04-04T01:28:08.101Z,989.04
2019-04-04T01:29:10.033Z,989.11
2019-04-04T01:30:07.279Z,989.2
2019-04-04T01:31:07.251Z,989.22
2019-04-04T01:32:07.224Z,989.22
2019-04-04T01:33:07.198Z,989.16
2019-04-04T01:34:07.168Z,989.15
2019-04-04T01:35:07.142Z,989.16
2019-04-04T01:36:07.115Z,989.15
2019-04-04T01:37:07.091Z,989.2
2019-04-04T01:38:07.062Z,989.21
2019-04-04T01:39:07.034Z,989.21
2019-04-04T01:40:07.007Z,989.22
2019-04-04T01:41:06.991Z,989.21
2019-04-04T01:42:07.709Z,989.19
2019-04-04T01:43:08.804Z,989.14
2019-04-04T01:44:06.904Z,989.13
2019-04-04T01:45:06.869Z,989.12
2019-04-04T01:46:06.847Z,989.11
2019-04-04T01:47:06.817Z,989.06
2019-04-04T01:48:06.789Z,989.02
2019-04-04T01:49:06.765Z,988.99
2019-04-04T01:50:06.746Z,988.94
2019-04-04T01:51:07.867Z,988.93
2019-04-04T01:52:06.682Z,988.97
2019-04-04T01:53:06.653Z,988.97
2019-04-04T01:54:06.627Z,988.91
2019-04-04T01:55:06.608Z,988.89
2019-04-04T01:56:06.997Z,988.88
2019-04-04T01:57:08.015Z,988.84
2019-04-04T01:58:07.891Z,988.8
2019-04-04T01:59:06.488Z,988.75
2019-04-04T02:00:06.460Z,988.63
2019-04-04T02:01:06.433Z,988.68
2019-04-04T02:02:06.407Z,988.7
2019-04-04T02:03:06.379Z,988.66
2019-04-04T02:04:06.352Z,988.61
2019-04-04T02:05:06.339Z,988.59
2019-04-04T02:06:06.298Z,988.53
2019-04-04T02:07:06.272Z,988.53
2019-04-04T02:08:06.242Z,988.54
2019-04-04T02:09:06.215Z,988.56
2019-04-04T02:10:06.190Z,988.54
2019-04-04T02:11:06.161Z,988.52
2019-04-04T02:12:07.849Z,988.56
2019-04-04T02:13:07.728Z,988.56
2019-04-04T02:14:06.077Z,988.62
2019-04-04T02:15:06.052Z,988.59
2019-04-04T02:16:06.026Z,988.63
2019-04-04T02:17:05.997Z,988.65
2019-04-04T02:18:05.968Z,988.64
2019-04-04T02:19:05.941Z,988.62
2019-04-04T02:20:05.914Z,988.57
2019-04-04T02:21:05.884Z,988.54
2019-04-04T02:22:05.858Z,988.5
2019-04-04T02:23:05.829Z,988.49
2019-04-04T02:24:05.803Z,988.51
2019-04-04T02:25:05.779Z,988.51
2019-04-04T02:26:05.908Z,988.51
2019-04-04T02:27:06.905Z,988.58
2019-04-04T02:28:06.881Z,988.66
2019-04-04T02:29:05.664Z,988.66
2019-04-04T02:30:05.639Z,988.66
2019-04-04T02:31:05.611Z,988.62
2019-04-04T02:32:05.609Z,988.65
2019-04-04T02:33:05.557Z,988.62
2019-04-04T02:34:06.418Z,988.64
2019-04-04T02:35:09.976Z,988.66
2019-04-04T02:36:05.471Z,988.63
2019-04-04T02:37:05.446Z,988.6
2019-04-04T02:38:05.418Z,988.55
2019-04-04T02:39:05.389Z,988.48
2019-04-04T02:40:05.946Z,988.39
2019-04-04T02:41:05.334Z,988.32
2019-04-04T02:42:05.306Z,988.27
2019-04-04T02:43:05.281Z,988.27
2019-04-04T02:44:05.251Z,988.15
2019-04-04T02:45:06.423Z,988.15
2019-04-04T02:46:05.196Z,988.12
2019-04-04T02:47:05.166Z,988.14
2019-04-04T02:48:05.140Z,988.16
2019-04-04T02:49:05.115Z,988.23
2019-04-04T02:50:05.088Z,988.32
2019-04-04T02:51:07.901Z,988.4
2019-04-04T02:52:05.028Z,988.44
2019-04-04T02:53:05.002Z,988.44
2019-04-04T02:54:04.972Z,988.45
2019-04-04T02:55:04.945Z,988.51
2019-04-04T02:56:04.961Z,988.45
2019-04-04T02:57:07.891Z,988.28
2019-04-04T02:58:04.871Z,988.15
2019-04-04T02:59:04.834Z,988.1
2019-04-04T03:00:04.807Z,988.16
2019-04-04T03:01:04.788Z,988.2
2019-04-04T03:02:05.925Z,988.23
2019-04-04T03:03:08.018Z,988.27
2019-04-04T03:04:04.695Z,988.31
2019-04-04T03:05:04.668Z,988.31
2019-04-04T03:06:04.639Z,988.31
2019-04-04T03:07:04.614Z,988.26
2019-04-04T03:08:04.728Z,988.26
2019-04-04T03:09:08.822Z,988.25
2019-04-04T03:10:04.532Z,988.31
2019-04-04T03:11:04.498Z,988.33
2019-04-04T03:12:04.470Z,988.41
2019-04-04T03:13:04.442Z,988.43
2019-04-04T03:14:04.773Z,988.47
2019-04-04T03:15:06.271Z,988.51
2019-04-04T03:16:04.359Z,988.59
2019-04-04T03:17:04.332Z,988.66
2019-04-04T03:18:05.440Z,988.76
2019-04-04T03:19:04.277Z,988.84
2019-04-04T03:20:04.248Z,988.93
2019-04-04T03:21:04.220Z,988.96
2019-04-04T03:22:04.193Z,989.04
2019-04-04T03:23:04.164Z,989.09
2019-04-04T03:24:06.376Z,989.11
2019-04-04T03:25:04.110Z,989.19
2019-04-04T03:26:04.083Z,989.1
2019-04-04T03:27:04.060Z,989.01
2019-04-04T03:28:04.058Z,988.97
2019-04-04T03:29:05.437Z,988.78
2019-04-04T03:30:03.970Z,988.69
2019-04-04T03:31:04.256Z,988.63
2019-04-04T03:32:03.918Z,988.6
2019-04-04T03:33:03.889Z,988.58
2019-04-04T03:34:10.812Z,988.47
2019-04-04T03:35:03.834Z,988.35
2019-04-04T03:36:03.805Z,988.28
2019-04-04T03:37:06.264Z,988.17
2019-04-04T03:38:03.748Z,988.19
2019-04-04T03:39:03.721Z,988.25
2019-04-04T03:40:03.697Z,988.27
2019-04-04T03:41:03.669Z,988.3
2019-04-04T03:42:06.902Z,988.31
2019-04-04T03:43:03.614Z,988.34
2019-04-04T03:44:03.585Z,988.27
2019-04-04T03:45:03.556Z,988.27
2019-04-04T03:46:03.530Z,988.32
2019-04-04T03:47:03.503Z,988.37
2019-04-04T03:48:03.475Z,988.45
2019-04-04T03:49:03.450Z,988.48
2019-04-04T03:50:03.419Z,988.56
2019-04-04T03:51:04.585Z,988.57
2019-04-04T03:52:03.366Z,988.59
2019-04-04T03:53:03.371Z,988.61
2019-04-04T03:54:03.314Z,988.61
2019-04-04T03:55:03.293Z,988.59
2019-04-04T03:56:03.255Z,988.56
2019-04-04T03:57:03.227Z,988.54
2019-04-04T03:58:03.206Z,988.57
2019-04-04T03:59:03.172Z,988.54
2019-04-04T04:00:06.196Z,988.54
2019-04-04T04:01:03.118Z,988.58
2019-04-04T04:02:03.093Z,988.52
2019-04-04T04:03:03.066Z,988.49
2019-04-04T04:04:03.037Z,988.45
2019-04-04T04:05:03.009Z,988.42
2019-04-04T04:06:02.981Z,988.37
2019-04-04T04:07:02.953Z,988.31
2019-04-04T04:08:02.926Z,988.2
2019-04-04T04:09:02.899Z,988.14
2019-04-04T04:10:02.944Z,988.05
2019-04-04T04:11:05.734Z,988.12
2019-04-04T04:12:02.822Z,988.2
2019-04-04T04:13:02.789Z,988.34
2019-04-04T04:14:02.761Z,988.54
2019-04-04T04:15:02.735Z,988.61
2019-04-04T04:16:03.759Z,988.64
2019-04-04T04:17:02.679Z,988.62
2019-04-04T04:18:02.659Z,988.62
2019-04-04T04:19:02.625Z,988.59
2019-04-04T04:20:03.959Z,988.5
2019-04-04T04:21:02.573Z,988.42
2019-04-04T04:22:02.544Z,988.35
2019-04-04T04:23:02.513Z,988.2
2019-04-04T04:24:02.485Z,988.13
2019-04-04T04:25:03.626Z,988.08
2019-04-04T04:26:07.984Z,988.11
2019-04-04T04:27:02.412Z,988.15
2019-04-04T04:28:03.090Z,988.21
2019-04-04T04:29:02.349Z,988.24
2019-04-04T04:30:05.900Z,988.27
2019-04-04T04:31:02.294Z,988.28
2019-04-04T04:32:02.308Z,988.3
2019-04-04T04:33:02.239Z,988.23
2019-04-04T04:34:02.210Z,988.14
2019-04-04T04:35:02.181Z,988.13
2019-04-04T04:36:02.154Z,988.19
2019-04-04T04:37:02.129Z,988.22
2019-04-04T04:38:02.098Z,988.26
2019-04-04T04:39:02.073Z,988.18
2019-04-04T04:40:02.047Z,988.11
2019-04-04T04:41:02.017Z,988.05
2019-04-04T04:42:02.067Z,987.98
2019-04-04T04:43:01.963Z,988
2019-04-04T04:44:02.678Z,987.97
2019-04-04T04:45:01.929Z,987.92
2019-04-04T04:46:01.877Z,987.96
2019-04-04T04:47:01.849Z,987.92
2019-04-04T04:48:01.849Z,987.95
2019-04-04T04:49:03.166Z,988
2019-04-04T04:50:01.777Z,987.98
2019-04-04T04:51:01.738Z,987.95
2019-04-04T04:52:01.710Z,987.95
2019-04-04T04:53:01.698Z,987.96
2019-04-04T04:54:01.668Z,987.97
2019-04-04T04:55:01.629Z,987.93
2019-04-04T04:56:01.599Z,987.95
2019-04-04T04:57:03.880Z,987.95
2019-04-04T04:58:01.545Z,987.95
2019-04-04T04:59:01.521Z,988.01
2019-04-04T05:00:01.491Z,988.01
2019-04-04T05:01:01.461Z,988.04
2019-04-04T05:02:01.434Z,988.06
2019-04-04T05:03:01.406Z,988.06
2019-04-04T05:04:02.601Z,988.05
2019-04-04T05:05:01.352Z,988.08
2019-04-04T05:06:02.608Z,988.09
2019-04-04T05:07:01.296Z,988.12
2019-04-04T05:08:01.269Z,988.06
2019-04-04T05:09:01.240Z,988.02
2019-04-04T05:10:01.212Z,987.97
2019-04-04T05:11:01.185Z,987.87
2019-04-04T05:12:01.175Z,987.84
2019-04-04T05:13:01.129Z,987.84
2019-04-04T05:14:01.101Z,987.92
2019-04-04T05:15:01.969Z,988.02
2019-04-04T05:16:02.022Z,988.03
2019-04-04T05:17:01.019Z,988.09
2019-04-04T05:18:00.995Z,988.14
2019-04-04T05:19:00.965Z,988.15
2019-04-04T05:20:00.937Z,988.14
2019-04-04T05:21:01.806Z,988.12
2019-04-04T05:22:00.883Z,988.11
2019-04-04T05:23:00.854Z,988.09
2019-04-04T05:24:00.828Z,988.09
2019-04-04T05:25:07.732Z,988.11
2019-04-04T05:26:03.043Z,988.18
2019-04-04T05:27:00.745Z,988.24
2019-04-04T05:28:00.744Z,988.31
2019-04-04T05:29:00.691Z,988.34
2019-04-04T05:30:00.666Z,988.43
2019-04-04T05:31:00.647Z,988.48
2019-04-04T05:32:00.657Z,988.47
2019-04-04T05:33:00.581Z,988.44
2019-04-04T05:34:00.612Z,988.36
2019-04-04T05:35:01.138Z,988.32
2019-04-04T05:36:00.587Z,988.39
2019-04-04T05:37:00.572Z,988.36
2019-04-04T05:38:00.461Z,988.31
2019-04-04T05:39:00.419Z,988.33
2019-04-04T05:40:00.390Z,988.27
2019-04-04T05:41:00.362Z,988.26
2019-04-04T05:42:01.073Z,988.3
2019-04-04T05:43:01.994Z,988.37
2019-04-04T05:44:00.281Z,988.41
2019-04-04T05:45:00.267Z,988.44
2019-04-04T05:46:00.226Z,988.51
2019-04-04T05:47:00.235Z,988.5
2019-04-04T05:48:00.172Z,988.55
2019-04-04T05:49:07.532Z,988.52
2019-04-04T05:50:00.117Z,988.57
2019-04-04T05:51:00.090Z,988.54
2019-04-04T05:52:00.065Z,988.55
2019-04-04T05:53:00.037Z,988.49
2019-04-04T05:54:00.010Z,988.45
2019-04-04T05:55:00.002Z,988.41
2019-04-04T05:55:59.955Z,988.41
2019-04-04T05:56:59.929Z,988.49
2019-04-04T05:57:59.901Z,988.52
2019-04-04T05:58:59.965Z,988.56
2019-04-04T06:00:00.124Z,988.55
2019-04-04T06:01:01.853Z,988.51
2019-04-04T06:01:59.846Z,988.45
2019-04-04T06:02:59.766Z,988.35
2019-04-04T06:03:59.741Z,988.38
2019-04-04T06:04:59.710Z,988.34
2019-04-04T06:06:01.235Z,988.35
2019-04-04T06:06:59.670Z,988.34
2019-04-04T06:07:59.639Z,988.43
2019-04-04T06:08:59.621Z,988.49
2019-04-04T06:09:59.580Z,988.48
2019-04-04T06:10:59.563Z,988.52
2019-04-04T06:11:59.521Z,988.45
2019-04-04T06:12:59.494Z,988.45
2019-04-04T06:13:59.668Z,988.43
2019-04-04T06:15:00.494Z,988.41
2019-04-04T06:15:59.415Z,988.41
2019-04-04T06:16:59.387Z,988.36
2019-04-04T06:17:59.361Z,988.37
2019-04-04T06:18:59.334Z,988.36
2019-04-04T06:19:59.307Z,988.32
2019-04-04T06:20:59.279Z,988.38
2019-04-04T06:21:59.255Z,988.43
2019-04-04T06:22:59.564Z,988.46
2019-04-04T06:23:59.202Z,988.48
2019-04-04T06:24:59.926Z,988.45
2019-04-04T06:25:59.171Z,988.45
2019-04-04T06:26:59.118Z,988.48
2019-04-04T06:27:59.093Z,988.48
2019-04-04T06:28:59.341Z,988.52
2019-04-04T06:29:59.038Z,988.53
2019-04-04T06:31:00.781Z,988.57
2019-04-04T06:32:00.281Z,988.58
2019-04-04T06:32:58.963Z,988.68
2019-04-04T06:33:58.935Z,988.7
2019-04-04T06:34:58.921Z,988.78
2019-04-04T06:35:58.881Z,988.83
2019-04-04T06:36:58.854Z,988.87
2019-04-04T06:37:58.827Z,988.89
2019-04-04T06:38:58.801Z,988.94
2019-04-04T06:39:59.500Z,988.9
2019-04-04T06:40:58.823Z,988.91
2019-04-04T06:41:58.720Z,988.92
2019-04-04T06:42:58.698Z,988.95
2019-04-04T06:43:58.667Z,988.98
2019-04-04T06:44:58.644Z,989.02
2019-04-04T06:45:58.617Z,989.05
2019-04-04T06:46:58.588Z,989.07
2019-04-04T06:47:58.561Z,989.07
2019-04-04T06:48:58.538Z,989.07
2019-04-04T06:49:58.510Z,989.05
2019-04-04T06:50:58.485Z,989.06
2019-04-04T06:51:58.459Z,989.08
2019-04-04T06:52:58.431Z,989.08
2019-04-04T06:53:59.573Z,989.07
2019-04-04T06:54:58.376Z,989.06
2019-04-04T06:56:00.245Z,989.05
2019-04-04T06:56:59.216Z,989.11
2019-04-04T06:57:58.299Z,989.09
2019-04-04T06:58:58.292Z,989.08
2019-04-04T06:59:58.246Z,989.08
2019-04-04T07:00:58.222Z,989.06
2019-04-04T07:01:58.196Z,989.07
2019-04-04T07:02:58.167Z,989.09
2019-04-04T07:03:59.398Z,989.11
2019-04-04T07:04:58.117Z,989.14
2019-04-04T07:05:58.089Z,989.1
2019-04-04T07:06:59.059Z,989.13
2019-04-04T07:07:58.038Z,989.18
2019-04-04T07:08:58.013Z,989.14
2019-04-04T07:09:57.986Z,989.09
2019-04-04T07:11:00.366Z,989.09
2019-04-04T07:11:57.935Z,989.07
2019-04-04T07:13:09.622Z,989.06
2019-04-04T07:13:59.051Z,989.08
2019-04-04T07:14:57.856Z,989.09
2019-04-04T07:16:06.541Z,989.05
2019-04-04T07:16:58.004Z,989.1
2019-04-04T07:17:57.789Z,989.09
2019-04-04T07:18:57.754Z,989.1
2019-04-04T07:19:57.729Z,989.07
2019-04-04T07:20:57.702Z,989.03
2019-04-04T07:21:57.677Z,989.04
2019-04-04T07:22:57.648Z,989.04
2019-04-04T07:23:59.325Z,989.07
2019-04-04T07:25:00.829Z,989.03
2019-04-04T07:25:57.613Z,989.01
2019-04-04T07:26:57.760Z,989.03
2019-04-04T07:27:57.524Z,989.02
2019-04-04T07:28:57.493Z,989
2019-04-04T07:29:57.467Z,988.95
2019-04-04T07:30:59.263Z,988.96
2019-04-04T07:31:57.419Z,988.96
2019-04-04T07:32:57.392Z,988.97
2019-04-04T07:33:57.366Z,988.97
2019-04-04T07:34:57.340Z,988.98
2019-04-04T07:35:57.593Z,988.95
2019-04-04T07:36:57.487Z,988.93
2019-04-04T07:37:57.666Z,988.99
2019-04-04T07:38:58.155Z,989.03
2019-04-04T07:39:57.212Z,989
2019-04-04T07:40:57.186Z,989.04
2019-04-04T07:41:57.161Z,989.03
2019-04-04T07:42:57.135Z,989.07
2019-04-04T07:43:58.565Z,989.04
2019-04-04T07:44:57.083Z,989.04
2019-04-04T07:45:59.600Z,989.04
2019-04-04T07:46:57.030Z,989.01
2019-04-04T07:47:57.118Z,989.07
2019-04-04T07:48:56.980Z,989.06
2019-04-04T07:49:56.953Z,989.09
2019-04-04T07:50:58.463Z,989.08
2019-04-04T07:51:56.901Z,989.13
2019-04-04T07:52:56.877Z,989.1
2019-04-04T07:53:56.858Z,989.05
2019-04-04T07:54:56.847Z,989.06
2019-04-04T07:55:57.035Z,989.09
2019-04-04T07:56:56.775Z,989.12
2019-04-04T07:57:57.172Z,989.14
2019-04-04T07:58:56.895Z,989.11
2019-04-04T07:59:56.947Z,989.15
2019-04-04T08:00:56.796Z,989.18
2019-04-04T08:01:56.828Z,989.2
2019-04-04T08:02:56.756Z,989.24
2019-04-04T08:03:56.595Z,989.28
2019-04-04T08:04:56.574Z,989.29
2019-04-04T08:05:56.542Z,989.28
2019-04-04T08:06:56.518Z,989.28
2019-04-04T08:07:56.494Z,989.24
2019-04-04T08:08:56.471Z,989.25
2019-04-04T08:09:56.446Z,989.23
2019-04-04T08:10:56.417Z,989.25
2019-04-04T08:11:56.394Z,989.3
2019-04-04T08:12:56.371Z,989.26
2019-04-04T08:13:56.340Z,989.25
2019-04-04T08:14:56.314Z,989.29
2019-04-04T08:15:56.291Z,989.31
2019-04-04T08:16:56.263Z,989.29
2019-04-04T08:17:56.237Z,989.32
2019-04-04T08:18:56.213Z,989.31
2019-04-04T08:19:59.769Z,989.33
2019-04-04T08:20:56.212Z,989.29
2019-04-04T08:21:56.136Z,989.29
2019-04-04T08:22:56.109Z,989.28
2019-04-04T08:23:56.085Z,989.29
2019-04-04T08:24:56.062Z,989.33
2019-04-04T08:25:56.040Z,989.3
2019-04-04T08:26:56.009Z,989.33
2019-04-04T08:27:55.983Z,989.32
2019-04-04T08:28:56.011Z,989.31
2019-04-04T08:29:55.933Z,989.31
2019-04-04T08:30:55.944Z,989.3
2019-04-04T08:31:55.887Z,989.3
2019-04-04T08:32:55.858Z,989.38
2019-04-04T08:33:56.072Z,989.33
2019-04-04T08:34:55.992Z,989.36
2019-04-04T08:36:05.272Z,989.32
2019-04-04T08:36:55.995Z,989.36
2019-04-04T08:37:55.965Z,989.41
2019-04-04T08:38:55.704Z,989.35
2019-04-04T08:39:55.897Z,989.35
2019-04-04T08:40:55.674Z,989.38
2019-04-04T08:41:55.915Z,989.36
2019-04-04T08:42:55.603Z,989.36
2019-04-04T08:43:55.581Z,989.37
2019-04-04T08:44:55.555Z,989.35
2019-04-04T08:45:55.529Z,989.37
2019-04-04T08:46:55.847Z,989.37
2019-04-04T08:47:55.477Z,989.32
2019-04-04T08:48:55.449Z,989.27
2019-04-04T08:49:55.438Z,989.27
2019-04-04T08:50:55.399Z,989.24
2019-04-04T08:51:55.370Z,989.36
2019-04-04T08:52:55.347Z,989.4
2019-04-04T08:53:55.321Z,989.43
2019-04-04T08:54:55.295Z,989.46
2019-04-04T08:55:55.270Z,989.49
2019-04-04T08:56:55.242Z,989.53
2019-04-04T08:57:55.217Z,989.52
2019-04-04T08:58:55.193Z,989.56
2019-04-04T08:59:55.167Z,989.58
2019-04-04T09:00:55.141Z,989.59
2019-04-04T09:01:55.115Z,989.61
2019-04-04T09:02:55.090Z,989.6
2019-04-04T09:03:55.101Z,989.63
2019-04-04T09:04:55.038Z,989.6
2019-04-04T09:05:55.011Z,989.59
2019-04-04T09:06:54.985Z,989.58
2019-04-04T09:07:54.962Z,989.58
2019-04-04T09:08:54.940Z,989.56
2019-04-04T09:09:55.008Z,989.55
2019-04-04T09:10:54.882Z,989.61
2019-04-04T09:11:54.857Z,989.6
2019-04-04T09:12:54.832Z,989.57
2019-04-04T09:13:54.805Z,989.64
2019-04-04T09:14:54.780Z,989.66
2019-04-04T09:15:54.755Z,989.6
2019-04-04T09:16:54.728Z,989.66
2019-04-04T09:17:54.701Z,989.65
2019-04-04T09:18:54.675Z,989.64
2019-04-04T09:19:54.653Z,989.64
2019-04-04T09:20:54.625Z,989.63
2019-04-04T09:21:54.598Z,989.64
2019-04-04T09:22:54.572Z,989.65
2019-04-04T09:23:54.546Z,989.66
2019-04-04T09:24:54.521Z,989.6
2019-04-04T09:26:04.880Z,989.59
2019-04-04T09:26:54.469Z,989.54
2019-04-04T09:27:54.443Z,989.56
2019-04-04T09:28:54.416Z,989.55
2019-04-04T09:29:54.391Z,989.65
2019-04-04T09:30:54.366Z,989.59
2019-04-04T09:31:54.340Z,989.6
2019-04-04T09:32:54.313Z,989.59
2019-04-04T09:33:54.291Z,989.58
2019-04-04T09:34:54.264Z,989.6
2019-04-04T09:35:54.333Z,989.53
2019-04-04T09:36:54.211Z,989.58
2019-04-04T09:37:54.186Z,989.62
2019-04-04T09:38:54.162Z,989.68
2019-04-04T09:39:54.133Z,989.63
2019-04-04T09:40:54.107Z,989.65
2019-04-04T09:41:54.112Z,989.61
2019-04-04T09:42:54.060Z,989.59
2019-04-04T09:43:54.031Z,989.56
2019-04-04T09:44:54.004Z,989.55
2019-04-04T09:45:53.979Z,989.55
2019-04-04T09:47:04.773Z,989.59
2019-04-04T09:47:53.927Z,989.58
2019-04-04T09:48:53.899Z,989.57
2019-04-04T09:49:53.875Z,989.52
2019-04-04T09:50:53.851Z,989.53
2019-04-04T09:51:53.821Z,989.52
2019-04-04T09:52:53.799Z,989.53
2019-04-04T09:53:54.153Z,989.51
2019-04-04T09:54:53.760Z,989.51
2019-04-04T09:55:53.721Z,989.48
2019-04-04T09:56:53.691Z,989.53
2019-04-04T09:57:54.864Z,989.53
2019-04-04T09:58:54.996Z,989.55
2019-04-04T09:59:53.612Z,989.54
2019-04-04T10:00:53.603Z,989.56
2019-04-04T10:01:53.559Z,989.58
2019-04-04T10:02:53.532Z,989.58
2019-04-04T10:03:53.645Z,989.59
2019-04-04T10:04:53.483Z,989.59
2019-04-04T10:05:53.455Z,989.6
2019-04-04T10:06:53.430Z,989.6
2019-04-04T10:07:53.402Z,989.61
2019-04-04T10:08:53.374Z,989.63
2019-04-04T10:09:53.351Z,989.64
2019-04-04T10:10:53.484Z,989.64
2019-04-04T10:11:53.296Z,989.67
2019-04-04T10:12:53.270Z,989.67
2019-04-04T10:13:53.244Z,989.73
2019-04-04T10:14:53.218Z,989.72
2019-04-04T10:15:53.190Z,989.76
2019-04-04T10:16:53.164Z,989.77
2019-04-04T10:17:53.141Z,989.8
2019-04-04T10:18:53.111Z,989.8
2019-04-04T10:19:53.090Z,989.8
2019-04-04T10:20:53.060Z,989.78
2019-04-04T10:21:53.034Z,989.76
2019-04-04T10:22:53.009Z,989.73
2019-04-04T10:23:52.982Z,989.7
2019-04-04T10:24:52.958Z,989.68
2019-04-04T10:25:52.931Z,989.67
2019-04-04T10:26:52.903Z,989.69
2019-04-04T10:27:52.876Z,989.68
2019-04-04T10:28:52.849Z,989.7
2019-04-04T10:29:52.823Z,989.7
2019-04-04T10:30:52.797Z,989.69
2019-04-04T10:31:52.771Z,989.66
2019-04-04T10:32:53.006Z,989.69
2019-04-04T10:33:52.721Z,989.68
2019-04-04T10:34:52.693Z,989.73
2019-04-04T10:35:52.667Z,989.72
2019-04-04T10:36:52.639Z,989.75
2019-04-04T10:37:52.612Z,989.76
2019-04-04T10:38:52.589Z,989.79
2019-04-04T10:39:52.564Z,989.77
2019-04-04T10:40:52.537Z,989.77
2019-04-04T10:41:52.509Z,989.75
2019-04-04T10:42:52.481Z,989.74
2019-04-04T10:43:52.456Z,989.7
2019-04-04T10:44:52.431Z,989.7
2019-04-04T10:45:52.402Z,989.69
2019-04-04T10:46:52.377Z,989.69
2019-04-04T10:47:52.352Z,989.65
2019-04-04T10:48:52.326Z,989.63
2019-04-04T10:49:52.298Z,989.65
2019-04-04T10:50:52.272Z,989.61
2019-04-04T10:51:52.247Z,989.59
2019-04-04T10:52:52.221Z,989.61
2019-04-04T10:53:52.196Z,989.63
2019-04-04T10:54:52.168Z,989.61
2019-04-04T10:55:52.145Z,989.65
2019-04-04T10:56:52.118Z,989.61
2019-04-04T10:57:52.091Z,989.62
2019-04-04T10:58:52.063Z,989.62
2019-04-04T10:59:54.458Z,989.6
2019-04-04T11:00:52.012Z,989.56
2019-04-04T11:01:51.986Z,989.53
2019-04-04T11:02:51.961Z,989.53
2019-04-04T11:03:51.934Z,989.52
2019-04-04T11:04:51.907Z,989.56
2019-04-04T11:05:51.879Z,989.56
2019-04-04T11:06:51.855Z,989.55
2019-04-04T11:07:51.828Z,989.55
2019-04-04T11:08:51.800Z,989.55
2019-04-04T11:09:51.775Z,989.55
2019-04-04T11:10:51.749Z,989.62
2019-04-04T11:11:51.722Z,989.65
2019-04-04T11:12:51.696Z,989.64
2019-04-04T11:13:51.670Z,989.66
2019-04-04T11:14:51.643Z,989.65
2019-04-04T11:15:51.617Z,989.65
2019-04-04T11:16:51.591Z,989.71
2019-04-04T11:17:51.564Z,989.71
2019-04-04T11:18:51.539Z,989.72
2019-04-04T11:19:51.515Z,989.65
2019-04-04T11:20:51.490Z,989.68
2019-04-04T11:21:51.460Z,989.68
2019-04-04T11:22:51.434Z,989.74
2019-04-04T11:23:51.406Z,989.71
2019-04-04T11:24:51.382Z,989.67
2019-04-04T11:25:51.353Z,989.69
2019-04-04T11:26:51.328Z,989.73
2019-04-04T11:27:51.326Z,989.74
2019-04-04T11:28:51.274Z,989.82
2019-04-04T11:29:51.246Z,989.82
2019-04-04T11:30:51.220Z,989.82
2019-04-04T11:31:51.195Z,989.86
2019-04-04T11:32:51.169Z,989.86
2019-04-04T11:33:51.141Z,989.86
2019-04-04T11:34:53.241Z,989.81
2019-04-04T11:35:51.088Z,989.76
2019-04-04T11:36:51.060Z,989.71
2019-04-04T11:37:51.035Z,989.64
2019-04-04T11:38:51.008Z,989.59
2019-04-04T11:39:54.710Z,989.62
2019-04-04T11:40:50.953Z,989.7
2019-04-04T11:41:50.928Z,989.79
2019-04-04T11:42:50.901Z,989.84
2019-04-04T11:43:50.882Z,989.86
2019-04-04T11:44:50.847Z,989.89
2019-04-04T11:45:50.822Z,989.9
2019-04-04T11:46:50.794Z,989.91
2019-04-04T11:47:50.770Z,989.96
2019-04-04T11:48:50.740Z,990
2019-04-04T11:49:50.733Z,990.01
2019-04-04T11:50:50.689Z,990
2019-04-04T11:51:50.662Z,990.08
2019-04-04T11:52:50.636Z,990.05
2019-04-04T11:53:50.611Z,990.05
2019-04-04T11:54:50.582Z,990.08
2019-04-04T11:55:50.558Z,990.13
2019-04-04T11:56:50.531Z,990.15
2019-04-04T11:57:50.505Z,990.16
2019-04-04T11:58:50.479Z,990.15
2019-04-04T11:59:50.454Z,990.19
2019-04-04T12:00:50.429Z,990.2
2019-04-04T12:01:50.402Z,990.25
2019-04-04T12:02:50.378Z,990.29
2019-04-04T12:03:50.349Z,990.31
2019-04-04T12:04:50.330Z,990.41
2019-04-04T12:05:50.305Z,990.39
2019-04-04T12:06:50.275Z,990.38
2019-04-04T12:07:50.250Z,990.37
2019-04-04T12:08:50.223Z,990.31
2019-04-04T12:09:50.197Z,990.28
2019-04-04T12:10:50.171Z,990.26
2019-04-04T12:11:50.148Z,990.28
2019-04-04T12:12:50.123Z,990.24
2019-04-04T12:13:50.587Z,990.28
2019-04-04T12:14:50.071Z,990.24
2019-04-04T12:15:50.046Z,990.23
2019-04-04T12:16:50.019Z,990.25
2019-04-04T12:17:49.994Z,990.32
2019-04-04T12:18:49.968Z,990.3
2019-04-04T12:19:49.942Z,990.3
2019-04-04T12:20:49.918Z,990.25
2019-04-04T12:21:49.892Z,990.28
2019-04-04T12:22:49.868Z,990.3
2019-04-04T12:23:51.392Z,990.3
2019-04-04T12:24:49.817Z,990.3
2019-04-04T12:25:49.790Z,990.27
2019-04-04T12:26:49.767Z,990.23
2019-04-04T12:27:49.739Z,990.26
2019-04-04T12:28:49.813Z,990.27
2019-04-04T12:29:49.690Z,990.29
2019-04-04T12:30:49.666Z,990.28